Time;durP1;ratioP1;P1;durP2;ratioP2;P2;SDS_P1;SDS_P2;PMS_P1;PMS_P2;Temp;Humidity;BMP_temperature;BMP_pressure;BME280_temperature;BME280_humidity;BME280_pressure;Samples;Min_cycle;Max_cycle;Signal;HPM_P1;HPM_P2
2023/11/08 00:01:53;;;;;;;20.97;12.93;;;;;;;7.50;100.00;100141.75;5014162;28;20030;-65
2023/11/08 00:04:19;;;;;;;20.63;12.07;;;;;;;7.53;100.00;100166.16;5015394;28;20140;-68
2023/11/08 00:06:45;;;;;;;16.07;10.37;;;;;;;7.48;100.00;100152.50;5015570;28;20045;-66
2023/11/08 00:09:12;;;;;;;19.00;11.77;;;;;;;7.37;100.00;100139.56;5015291;28;20095;-65
2023/11/08 00:11:41;;;;;;;19.23;11.83;;;;;;;7.39;100.00;100154.31;5015384;28;20033;-65
2023/11/08 00:14:08;;;;;;;18.73;13.27;;;;;;;7.45;100.00;100158.13;5015829;28;20409;-64
2023/11/08 00:16:34;;;;;;;18.33;11.90;;;;;;;7.47;100.00;100154.34;5013547;28;20034;-64
2023/11/08 00:19:00;;;;;;;18.43;13.10;;;;;;;7.45;100.00;100152.84;5015293;28;20172;-64
2023/11/08 00:21:28;;;;;;;18.30;12.33;;;;;;;7.44;100.00;100149.34;5015545;28;20037;-63
2023/11/08 00:23:55;;;;;;;20.50;13.15;;;;;;;7.50;100.00;100165.59;5014891;28;20077;-64
2023/11/08 00:26:20;;;;;;;20.33;13.47;;;;;;;7.22;100.00;100109.31;5015079;28;20046;-64
2023/11/08 00:28:46;;;;;;;21.07;14.53;;;;;;;7.28;100.00;100129.91;5014772;28;20049;-65
2023/11/08 00:31:12;;;;;;;21.40;13.67;;;;;;;7.33;100.00;100132.91;5014681;28;20069;-65
2023/11/08 00:33:37;;;;;;;26.37;14.17;;;;;;;7.32;100.00;100131.25;5014904;28;20042;-63
2023/11/08 00:36:04;;;;;;;21.03;13.87;;;;;;;7.35;100.00;100137.06;5014858;28;20120;-64
2023/11/08 00:38:29;;;;;;;22.00;14.47;;;;;;;7.48;100.00;100149.88;5014948;28;20042;-66
2023/11/08 00:40:55;;;;;;;22.97;14.30;;;;;;;7.45;100.00;100134.28;5013505;28;20037;-66
2023/11/08 00:43:20;;;;;;;20.07;14.37;;;;;;;7.57;100.00;100150.75;5013549;28;20041;-64
2023/11/08 00:45:46;;;;;;;21.23;13.20;;;;;;;7.47;100.00;100134.97;5013402;28;20072;-64
2023/11/08 00:48:12;;;;;;;19.03;12.87;;;;;;;7.61;100.00;100155.59;5014918;28;20501;-65
2023/11/08 00:50:37;;;;;;;25.30;13.00;;;;;;;7.57;100.00;100151.59;5014831;28;20038;-65
2023/11/08 00:53:03;;;;;;;20.47;12.60;;;;;;;7.61;100.00;100150.28;5015175;28;20466;-66
2023/11/08 00:55:29;;;;;;;20.37;12.57;;;;;;;6.72;100.00;100017.38;5014775;28;20038;-64
2023/11/08 00:57:55;;;;;;;19.80;10.97;;;;;;;7.48;100.00;100136.63;5014474;28;20129;-65
2023/11/08 01:00:21;;;;;;;17.13;11.50;;;;;;;7.55;100.00;100148.28;5014536;28;20041;-66
2023/11/08 01:02:47;;;;;;;16.63;11.50;;;;;;;7.38;100.00;100120.03;5013621;28;20432;-64
2023/11/08 01:05:15;;;;;;;18.27;10.73;;;;;;;7.54;100.00;100138.66;5015023;28;20163;-64
2023/11/08 01:07:41;;;;;;;19.10;10.10;;;;;;;7.49;100.00;100132.97;5014873;28;20071;-64
2023/11/08 01:10:07;;;;;;;13.33;9.50;;;;;;;7.60;100.00;100153.94;5015137;28;20129;-64
2023/11/08 01:12:33;;;;;;;19.93;10.97;;;;;;;7.60;100.00;100148.63;5015003;28;20041;-63
2023/11/08 01:15:00;;;;;;;19.57;9.80;;;;;;;7.62;100.00;100153.75;5016632;28;20038;-63
2023/11/08 01:17:26;;;;;;;12.83;9.93;;;;;;;7.59;100.00;100143.47;5017280;28;20069;-63
2023/11/08 01:19:51;;;;;;;17.10;10.17;;;;;;;7.57;100.00;100150.75;5016759;28;20040;-68
2023/11/08 01:22:17;;;;;;;14.50;9.90;;;;;;;7.57;100.00;100156.88;5016605;28;20049;-67
2023/11/08 01:24:43;;;;;;;14.10;9.57;;;;;;;7.59;100.00;100167.34;5015433;28;20064;-64
2023/11/08 01:27:09;;;;;;;15.07;9.10;;;;;;;7.60;100.00;100167.16;5015695;28;20070;-65
2023/11/08 01:29:35;;;;;;;11.50;9.00;;;;;;;7.58;100.00;100163.84;5015182;28;20120;-65
2023/11/08 01:32:02;;;;;;;13.47;9.20;;;;;;;7.48;100.00;100152.50;5014760;28;20136;-65
2023/11/08 01:34:28;;;;;;;15.87;9.80;;;;;;;7.54;100.00;100169.63;5014504;28;20508;-65
2023/11/08 01:36:53;;;;;;;17.13;9.53;;;;;;;7.58;100.00;100168.31;5015432;28;20045;-66
2023/11/08 01:39:19;;;;;;;12.97;10.10;;;;;;;7.61;100.00;100176.78;5015053;28;20057;-65
2023/11/08 01:41:49;;;;;;;17.23;10.30;;;;;;;7.62;100.00;100170.50;5014964;28;20053;-64
2023/11/08 01:44:19;;;;;;;11.93;9.50;;;;;;;7.58;100.00;100169.16;5015049;28;20045;-67
2023/11/08 01:46:51;;;;;;;12.40;8.80;;;;;;;7.56;100.00;100168.47;5013793;28;20034;-66
2023/11/08 01:49:18;;;;;;;12.63;8.70;;;;;;;7.61;100.00;100165.34;5013452;28;20520;-65
2023/11/08 01:51:44;;;;;;;20.30;9.80;;;;;;;7.61;100.00;100168.00;5013655;28;20111;-66
2023/11/08 01:54:10;;;;;;;16.10;10.00;;;;;;;7.54;100.00;100170.47;5013476;28;20061;-65
2023/11/08 01:56:37;;;;;;;14.23;8.60;;;;;;;7.36;100.00;100143.19;5012394;28;20037;-65
2023/11/08 01:59:04;;;;;;;17.37;9.50;;;;;;;7.57;100.00;100178.09;5013798;28;20037;-65
2023/11/08 02:01:31;;;;;;;12.47;8.40;;;;;;;7.54;100.00;100183.72;5013597;28;20497;-65
2023/11/08 02:03:56;;;;;;;10.83;8.53;;;;;;;7.43;100.00;100160.94;5014298;28;20124;-65
2023/11/08 02:06:22;;;;;;;12.83;8.00;;;;;;;7.49;100.00;100172.72;5012394;28;20065;-65
2023/11/08 02:08:48;;;;;;;14.33;8.70;;;;;;;7.52;100.00;100180.38;5013039;28;20485;-66
2023/11/08 02:11:13;;;;;;;14.23;7.77;;;;;;;7.46;100.00;100178.34;5013299;28;20029;-64
2023/11/08 02:13:40;;;;;;;12.97;7.83;;;;;;;7.36;100.00;100169.69;5013407;28;20041;-65
2023/11/08 02:16:06;;;;;;;11.23;8.40;;;;;;;7.44;100.00;100177.66;5013764;28;20038;-65
2023/11/08 02:18:32;;;;;;;13.43;8.50;;;;;;;7.36;100.00;100164.38;5012044;28;20034;-65
2023/11/08 02:21:01;;;;;;;12.60;7.20;;;;;;;7.48;100.00;100179.00;5012747;28;20037;-64
2023/11/08 02:23:28;;;;;;;14.00;8.00;;;;;;;7.44;100.00;100169.72;5012316;28;20056;-64
2023/11/08 02:25:54;;;;;;;11.57;7.93;;;;;;;7.46;100.00;100175.69;5013303;28;20096;-65
2023/11/08 02:28:20;;;;;;;12.60;7.50;;;;;;;7.47;100.00;100182.66;5012745;28;20040;-64
2023/11/08 02:30:54;;;;;;;12.13;7.23;;;;;;;7.39;100.00;100164.91;5013282;28;20037;-65
2023/11/08 02:33:21;;;;;;;11.13;7.87;;;;;;;7.44;100.00;100177.66;5013459;28;20117;-65
2023/11/08 02:35:47;;;;;;;13.50;7.47;;;;;;;7.37;100.00;100184.59;5011469;28;20033;-67
2023/11/08 02:38:14;;;;;;;12.33;7.30;;;;;;;7.40;100.00;100193.03;5012457;28;20038;-64
2023/11/08 02:40:43;;;;;;;9.47;6.43;;;;;;;7.39;100.00;100187.91;5012898;28;20124;-65
2023/11/08 02:43:12;;;;;;;;;;;;;;;7.50;100.00;100192.94;5013063;28;20405;-64
2023/11/08 02:45:38;;;;;;;9.80;6.13;;;;;;;7.43;100.00;100189.25;5011286;28;19975;-66
2023/11/08 02:48:05;;;;;;;13.90;7.03;;;;;;;7.40;100.00;100181.63;4995036;28;20037;-65
2023/11/08 02:50:33;;;;;;;10.03;6.80;;;;;;;7.36;100.00;100172.31;5010982;28;20045;-64
2023/11/08 02:53:00;;;;;;;8.93;6.67;;;;;;;7.44;100.00;100182.97;5012406;28;20472;-65
2023/11/08 02:55:27;;;;;;;9.47;6.63;;;;;;;7.47;100.00;100190.59;5012334;28;20125;-66
2023/11/08 02:57:53;;;;;;;10.63;7.33;;;;;;;7.44;100.00;100190.91;5012598;28;20042;-64
2023/11/08 03:00:19;;;;;;;12.20;6.60;;;;;;;7.42;100.00;100187.59;5012620;28;20046;-65
2023/11/08 03:02:46;;;;;;;9.10;7.33;;;;;;;7.33;100.00;100180.59;5012449;28;20271;-63
2023/11/08 03:05:11;;;;;;;8.57;7.20;;;;;;;7.41;100.00;100194.72;5012188;28;20404;-63
2023/11/08 03:07:37;;;;;;;8.10;6.73;;;;;;;7.33;100.00;100175.28;5012111;28;20038;-64
2023/11/08 03:10:04;;;;;;;13.40;7.43;;;;;;;7.39;100.00;100182.59;5012288;28;20088;-63
2023/11/08 03:12:30;;;;;;;10.43;6.83;;;;;;;7.41;100.00;100188.56;5012143;28;20038;-65
2023/11/08 03:14:56;;;;;;;11.07;7.60;;;;;;;7.34;100.00;100182.25;5010704;28;20069;-66
2023/11/08 03:17:22;;;;;;;13.07;8.33;;;;;;;7.36;100.00;100188.22;5012119;28;20610;-64
2023/11/08 03:19:47;;;;;;;10.87;7.37;;;;;;;7.37;100.00;100187.22;5011686;28;20034;-65
2023/11/08 03:22:13;;;;;;;13.77;7.57;;;;;;;7.09;100.00;100146.81;5011963;28;20491;-66
2023/11/08 03:24:40;;;;;;;11.37;8.10;;;;;;;7.22;100.00;100175.53;5010688;28;20082;-66
2023/11/08 03:27:06;;;;;;;11.63;7.73;;;;;;;7.33;100.00;100175.28;5011913;28;20420;-62
2023/11/08 03:29:32;;;;;;;9.93;6.63;;;;;;;7.37;100.00;100184.59;5011142;28;20405;-65
2023/11/08 03:31:58;;;;;;;10.43;7.33;;;;;;;7.44;100.00;100198.88;5011629;28;20029;-65
2023/11/08 03:34:26;;;;;;;13.27;7.93;;;;;;;7.36;100.00;100186.41;5011773;28;20481;-63
2023/11/08 03:36:52;;;;;;;9.55;7.20;;;;;;;7.29;100.00;100181.88;5011886;28;20030;-66
2023/11/08 03:39:18;;;;;;;10.77;7.40;;;;;;;7.27;100.00;100176.75;5012039;28;20030;-68
2023/11/08 03:41:45;;;;;;;16.37;8.50;;;;;;;7.41;100.00;100199.19;5011908;28;20044;-66
2023/11/08 03:44:11;;;;;;;13.37;7.93;;;;;;;7.19;100.00;100173.19;5010799;28;20125;-64
2023/11/08 03:46:37;;;;;;;12.47;8.07;;;;;;;7.24;100.00;100182.38;5010589;28;20125;-65
2023/11/08 03:49:02;;;;;;;12.63;7.80;;;;;;;7.20;100.00;100180.16;5011411;28;20048;-64
2023/11/08 03:51:28;;;;;;;14.47;9.43;;;;;;;7.25;100.00;100196.44;5011645;28;20042;-66
2023/11/08 03:53:54;;;;;;;15.30;8.63;;;;;;;7.30;100.00;100196.78;5011720;28;20049;-64
2023/11/08 03:56:19;;;;;;;11.60;7.70;;;;;;;7.28;100.00;100202.25;5011665;28;20116;-65
2023/11/08 03:58:45;;;;;;;15.00;8.03;;;;;;;7.15;100.00;100186.75;5011529;28;20358;-63
2023/11/08 04:01:11;;;;;;;17.00;8.63;;;;;;;7.11;100.00;100188.03;5011557;28;20064;-65
2023/11/08 04:03:37;;;;;;;14.37;8.97;;;;;;;7.25;100.00;100214.97;5010131;28;20037;-66
2023/11/08 04:06:03;;;;;;;12.37;7.43;;;;;;;7.13;100.00;100199.31;5011434;28;20533;-65
2023/11/08 04:08:29;;;;;;;14.03;8.63;;;;;;;7.12;100.00;100202.94;5010486;28;20193;-67
2023/11/08 04:10:54;;;;;;;14.37;8.07;;;;;;;6.99;100.00;100172.56;5011597;28;20085;-65
2023/11/08 04:13:20;;;;;;;14.30;8.53;;;;;;;7.13;100.00;100209.91;5011531;28;20042;-63
2023/11/08 04:15:47;;;;;;;13.57;7.83;;;;;;;6.90;100.00;100173.47;5011552;28;20042;-64
2023/11/08 04:18:12;;;;;;;15.17;8.90;;;;;;;7.01;100.00;100195.25;5012964;28;20033;-65
2023/11/08 04:20:38;;;;;;;12.60;7.53;;;;;;;6.99;100.00;100184.00;5011178;28;20041;-63
2023/11/08 04:23:04;;;;;;;13.23;8.27;;;;;;;7.10;100.00;100201.44;5011437;28;20132;-65
2023/11/08 04:25:30;;;;;;;13.93;8.40;;;;;;;7.04;100.00;100192.31;5011857;28;20474;-67
2023/11/08 04:27:56;;;;;;;16.20;8.37;;;;;;;6.90;100.00;100174.31;5011360;28;20428;-67
2023/11/08 04:30:22;;;;;;;14.83;8.33;;;;;;;7.06;100.00;100203.56;5011268;28;20042;-65
2023/11/08 04:32:47;;;;;;;11.60;7.67;;;;;;;6.97;100.00;100185.97;5011137;28;20125;-64
2023/11/08 04:35:17;;;;;;;14.23;7.97;;;;;;;7.08;100.00;100198.94;4993673;28;20049;-65
2023/11/08 04:37:46;;;;;;;14.13;8.37;;;;;;;6.79;100.00;100150.72;5011373;28;20087;-67
2023/11/08 04:40:14;;;;;;;13.82;8.00;;;;;;;7.09;100.00;100205.91;5011657;28;20476;-65
2023/11/08 04:42:40;;;;;;;;;;;;;;;7.12;100.00;100210.06;5013205;28;20525;-66
2023/11/08 04:45:06;;;;;;;11.80;7.37;;;;;;;6.15;100.00;100054.78;5014423;28;19956;-71
2023/11/08 04:47:32;;;;;;;11.13;8.13;;;;;;;7.02;100.00;100188.16;5014492;28;20133;-67
2023/11/08 04:49:58;;;;;;;11.10;8.10;;;;;;;7.07;100.00;100202.59;5014689;28;20116;-67
2023/11/08 04:52:24;;;;;;;16.43;8.77;;;;;;;7.08;100.00;100203.41;5014874;28;20041;-68
2023/11/08 04:54:50;;;;;;;12.47;7.87;;;;;;;6.70;100.00;100151.66;5014902;28;20477;-64
2023/11/08 04:57:18;;;;;;;10.43;7.13;;;;;;;6.96;100.00;100194.91;5014983;28;20485;-61
2023/11/08 04:59:49;;;;;;;12.15;7.65;;;;;;;6.96;100.00;100189.59;5013068;28;20085;-65
2023/11/08 05:02:16;;;;;;;13.10;7.53;;;;;;;6.92;100.00;100193.50;5014592;28;20046;-66
2023/11/08 05:04:45;;;;;;;12.17;7.57;;;;;;;7.03;100.00;100211.81;5013922;28;20777;-63
2023/11/08 05:07:12;;;;;;;10.27;7.97;;;;;;;7.00;100.00;100206.84;5013011;28;20045;-64
2023/11/08 05:09:40;;;;;;;15.93;6.97;;;;;;;6.89;100.00;100193.81;5013692;28;20111;-65
2023/11/08 05:12:07;;;;;;;14.10;7.97;;;;;;;6.94;100.00;100202.16;5013855;28;20116;-63
2023/11/08 05:14:33;;;;;;;11.27;7.73;;;;;;;6.88;100.00;100202.75;5013618;28;20072;-63
2023/11/08 05:17:03;;;;;;;10.20;7.40;;;;;;;6.95;100.00;100211.75;5012626;28;20103;-65
2023/11/08 05:19:30;;;;;;;13.33;7.20;;;;;;;6.95;100.00;100219.72;5013898;28;20030;-63
2023/11/08 05:21:55;;;;;;;8.73;6.57;;;;;;;7.01;100.00;100224.38;5013506;28;20205;-66
2023/11/08 05:24:22;;;;;;;10.17;6.50;;;;;;;7.00;100.00;100233.31;5012245;28;20556;-64
2023/11/08 05:26:49;;;;;;;12.40;6.27;;;;;;;7.00;100.00;100235.97;5013709;28;20072;-66
2023/11/08 05:29:15;;;;;;;11.07;7.00;;;;;;;6.99;100.00;100231.66;5020281;28;20056;-65
2023/11/08 05:31:41;;;;;;;11.73;7.77;;;;;;;6.81;100.00;100201.69;5017595;28;20037;-66
2023/11/08 05:34:07;;;;;;;9.63;6.70;;;;;;;7.03;100.00;100234.81;5015802;28;20396;-63
2023/11/08 05:36:34;;;;;;;9.03;6.63;;;;;;;6.99;100.00;100221.06;5029024;28;20037;-67
2023/11/08 05:39:00;;;;;;;9.37;7.70;;;;;;;7.02;100.00;100222.56;5022139;28;20034;-65
2023/11/08 05:41:26;;;;;;;8.37;6.33;;;;;;;6.94;100.00;100220.69;5025302;28;20049;-66
2023/11/08 05:43:56;;;;;;;12.67;6.23;;;;;;;7.00;100.00;100233.31;5024874;28;20493;-68
2023/11/08 05:46:22;;;;;;;15.03;6.43;;;;;;;6.79;100.00;100203.66;5020942;28;20037;-66
2023/11/08 05:48:47;;;;;;;8.77;6.63;;;;;;;7.03;100.00;100243.59;5013420;28;20096;-63
2023/11/08 05:51:13;;;;;;;7.50;5.57;;;;;;;6.88;100.00;100234.50;5013299;28;20042;-67
2023/11/08 05:53:39;;;;;;;9.07;5.30;;;;;;;6.95;100.00;100235.59;5012721;28;20033;-65
2023/11/08 05:56:06;;;;;;;8.90;5.20;;;;;;;6.85;100.00;100237.47;5013182;28;20044;-63
2023/11/08 05:58:35;;;;;;;7.27;6.47;;;;;;;6.92;100.00;100245.63;5013504;28;20030;-65
2023/11/08 06:01:04;;;;;;;9.83;5.37;;;;;;;6.80;100.00;100237.91;5017371;28;20033;-66
2023/11/08 06:03:31;;;;;;;6.43;5.10;;;;;;;6.93;100.00;100255.22;5016720;28;20045;-66
2023/11/08 06:05:57;;;;;;;8.13;5.30;;;;;;;6.92;100.00;100251.75;5032946;28;20045;-65
2023/11/08 06:08:23;;;;;;;9.33;5.60;;;;;;;6.95;100.00;100251.47;5032884;28;20119;-67
2023/11/08 06:10:49;;;;;;;7.93;4.57;;;;;;;6.98;100.00;100261.75;5032777;28;20496;-66
2023/11/08 06:13:16;;;;;;;7.33;4.43;;;;;;;6.89;100.00;100240.63;5032610;28;20044;-65
2023/11/08 06:15:42;;;;;;;7.33;5.30;;;;;;;6.99;100.00;100252.81;5032502;28;20026;-66
2023/11/08 06:18:08;;;;;;;7.33;5.33;;;;;;;6.98;100.00;100247.69;5032642;28;20048;-65
2023/11/08 06:20:35;;;;;;;6.87;3.97;;;;;;;6.90;100.00;100237.00;5019822;28;20564;-65
2023/11/08 06:23:04;;;;;;;6.13;4.03;;;;;;;6.98;100.00;100256.47;5020883;28;20050;-67
2023/11/08 06:25:33;;;;;;;6.67;4.63;;;;;;;6.92;100.00;100258.84;5023909;28;20072;-66
2023/11/08 06:28:02;;;;;;;8.63;4.15;;;;;;;6.94;100.00;100265.69;5025894;28;20038;-63
2023/11/08 06:30:28;;;;;;;8.37;3.90;;;;;;;6.89;100.00;100259.16;5023318;28;20118;-66
2023/11/08 06:32:54;;;;;;;8.77;4.50;;;;;;;6.84;100.00;100256.97;5023215;28;20033;-64
2023/11/08 06:35:20;;;;;;;6.20;3.60;;;;;;;6.72;100.00;100248.44;5020433;28;20034;-65
2023/11/08 06:37:46;;;;;;;8.73;3.97;;;;;;;6.92;100.00;100278.22;5020588;28;20053;-65
2023/11/08 06:40:13;;;;;;;7.10;4.27;;;;;;;6.86;100.00;100257.66;5018265;28;20099;-66
2023/11/08 06:42:39;;;;;;;10.30;4.40;;;;;;;6.88;100.00;100271.56;5020968;28;20477;-65
2023/11/08 06:45:05;;;;;;;6.43;4.37;;;;;;;6.77;100.00;100266.50;5021863;28;20052;-63
2023/11/08 06:47:34;;;;;;;9.20;5.17;;;;;;;6.68;100.00;100259.47;5023264;28;20033;-64
2023/11/08 06:50:00;;;;;;;5.17;4.67;;;;;;;6.68;100.00;100260.31;5022099;28;20441;-64
2023/11/08 06:52:26;;;;;;;9.90;4.77;;;;;;;6.72;100.00;100268.78;5022235;28;20041;-63
2023/11/08 06:54:52;;;;;;;7.33;5.03;;;;;;;6.70;100.00;100262.81;5020442;28;20037;-65
2023/11/08 06:57:18;;;;;;;12.53;5.17;;;;;;;6.80;100.00;100271.50;5022350;28;20048;-66
2023/11/08 06:59:45;;;;;;;8.60;4.60;;;;;;;6.86;100.00;100270.88;5021803;28;20421;-65
2023/11/08 07:02:11;;;;;;;9.03;4.57;;;;;;;6.77;100.00;100258.56;5023518;28;20038;-65
2023/11/08 07:04:37;;;;;;;7.80;5.77;;;;;;;6.71;100.00;100238.00;5022441;28;20529;-66
2023/11/08 07:07:03;;;;;;;6.53;4.33;;;;;;;6.90;100.00;100266.94;5026555;28;20563;-65
2023/11/08 07:09:29;;;;;;;7.67;4.83;;;;;;;6.93;100.00;100279.06;5015734;28;20049;-64
2023/11/08 07:11:55;;;;;;;6.23;5.10;;;;;;;6.85;100.00;100266.56;5012181;28;20034;-65
2023/11/08 07:14:21;;;;;;;7.80;6.30;;;;;;;6.79;100.00;100256.59;5012100;28;20031;-65
2023/11/08 07:16:46;;;;;;;8.40;5.07;;;;;;;6.88;100.00;100274.22;5011802;28;20397;-64
2023/11/08 07:19:13;;;;;;;7.80;5.13;;;;;;;6.61;100.00;100232.75;5011750;28;20037;-64
2023/11/08 07:21:39;;;;;;;11.53;5.83;;;;;;;6.86;100.00;100278.81;5011654;28;20053;-64
2023/11/08 07:24:08;;;;;;;8.03;5.87;;;;;;;6.82;100.00;100258.94;5010698;28;20508;-65
2023/11/08 07:26:34;;;;;;;7.23;5.37;;;;;;;6.92;100.00;100267.63;5011876;28;20107;-64
2023/11/08 07:29:03;;;;;;;6.53;5.07;;;;;;;7.02;100.00;100275.53;5011863;28;20077;-66
2023/11/08 07:31:30;;;;;;;7.30;5.67;;;;;;;6.98;100.00;100255.63;5011851;28;20033;-65
2023/11/08 07:33:56;;;;;;;7.77;6.03;;;;;;;7.05;100.00;100261.97;5011585;28;20060;-64
2023/11/08 07:36:23;;;;;;;7.33;6.37;;;;;;;6.93;100.00;100237.53;5010427;28;20544;-66
2023/11/08 07:38:50;;;;;;;9.80;6.60;;;;;;;7.14;100.00;100272.47;5012213;28;20048;-64
2023/11/08 07:41:16;;;;;;;16.10;6.93;;;;;;;7.16;100.00;100269.66;5011980;28;20044;-64
2023/11/08 07:43:42;;;;;;;9.07;5.53;;;;;;;7.31;100.00;100277.91;5011954;28;20118;-63
2023/11/08 07:46:25;;;;;;;12.20;6.13;;;;;;;7.43;100.00;100288.09;5011384;28;20390;-69
2023/11/08 07:48:55;;;;;;;8.67;5.57;;;;;;;7.44;100.00;100289.78;5010650;28;20045;-67
2023/11/08 07:51:22;;;;;;;13.50;6.63;;;;;;;7.41;100.00;100290.09;5011816;28;20045;-63
2023/11/08 07:53:50;;;;;;;9.53;6.13;;;;;;;7.43;100.00;100281.97;5011892;28;20077;-66
2023/11/08 07:56:16;;;;;;;7.97;5.90;;;;;;;6.83;100.00;100191.78;5011684;28;20049;-64
2023/11/08 07:58:42;;;;;;;7.47;5.43;;;;;;;7.50;100.00;100290.97;5012089;28;20116;-68
2023/11/08 08:01:09;;;;;;;9.80;5.53;;;;;;;7.60;100.00;100294.38;5014971;28;20497;-67
2023/11/08 08:03:35;;;;;;;5.70;5.20;;;;;;;7.63;100.00;100293.22;5017763;28;20038;-63
2023/11/08 08:06:10;;;;;;;14.70;4.93;;;;;;;7.65;100.00;100302.69;5014625;28;20042;-64
2023/11/08 08:08:43;;;;;;;5.37;4.03;;;;;;;7.62;100.00;100304.81;5013884;28;20504;-68
2023/11/08 08:11:10;;;;;;;8.63;4.37;;;;;;;7.57;100.00;100310.59;5018884;28;20556;-67
2023/11/08 08:13:36;;;;;;;10.47;4.73;;;;;;;7.53;100.00;100298.63;5011567;28;20046;-70
2023/11/08 08:16:02;;;;;;;6.03;4.50;;;;;;;7.53;100.00;100300.47;5014242;28;20049;-67
2023/11/08 08:18:28;;;;;;;5.63;3.37;;;;;;;7.55;100.00;100309.91;5028145;28;20083;-66
2023/11/08 08:20:53;;;;;;;7.97;5.30;;;;;;;7.51;100.00;100313.00;5039439;28;20472;-65
2023/11/08 08:23:20;;;;;;;7.33;3.97;;;;;;;7.49;100.00;100315.81;5035419;28;20596;-74
2023/11/08 08:25:47;;;;;;;5.47;4.40;;;;;;;7.39;100.00;100292.06;5036023;28;20527;-68
2023/11/08 08:28:12;;;;;;;9.47;4.83;;;;;;;7.53;100.00;100313.72;5038541;28;20038;-66
2023/11/08 08:30:39;;;;;;;7.63;4.80;;;;;;;7.51;100.00;100305.88;5038504;28;20040;-67
2023/11/08 08:33:05;;;;;;;7.93;3.97;;;;;;;7.62;100.00;100312.78;5034830;28;20033;-67
2023/11/08 08:35:32;;;;;;;8.27;4.63;;;;;;;7.64;100.00;100314.28;5034923;28;20030;-68
2023/11/08 08:38:00;;;;;;;8.73;5.17;;;;;;;7.73;100.00;100318.63;5035154;28;20449;-67
2023/11/08 08:40:26;;;;;;;5.40;4.32;;;;;;;7.68;100.00;100312.16;5034857;28;20183;-70
2023/11/08 08:42:52;;;;;;;5.57;4.50;;;;;;;7.78;100.00;100319.00;5034622;28;20491;-68
2023/11/08 08:45:17;;;;;;;8.33;5.37;;;;;;;7.75;100.00;100314.00;5034443;28;20039;-70
2023/11/08 08:47:43;;;;;;;7.60;4.80;;;;;;;7.81;100.00;100322.34;5032995;28;20159;-66
2023/11/08 08:50:11;;;;;;;10.20;4.97;;;;;;;7.53;100.00;100269.50;5034272;28;20044;-68
2023/11/08 08:52:39;;;;;;;6.28;4.90;;;;;;;7.81;100.00;100325.00;5034554;28;20036;-66
2023/11/08 08:55:06;;;;;;;6.57;4.63;;;;;;;7.82;100.00;100316.06;5034172;28;20475;-66
2023/11/08 08:57:32;;;;;;;8.87;4.63;;;;;;;7.84;100.00;100316.75;5034143;28;20046;-67
2023/11/08 08:59:58;;;;;;;9.67;4.87;;;;;;;7.81;100.00;100311.75;5034236;28;20504;-66
2023/11/08 09:02:25;;;;;;;7.57;4.77;;;;;;;7.93;100.00;100331.72;5033945;28;20030;-66
2023/11/08 09:04:51;;;;;;;8.57;4.53;;;;;;;7.91;100.00;100333.69;5034204;28;20056;-67
2023/11/08 09:07:17;;;;;;;8.43;4.77;;;;;;;7.96;100.00;100332.22;5034055;28;20088;-66
2023/11/08 09:09:43;;;;;;;5.30;4.50;;;;;;;8.03;100.00;100324.47;5032489;28;20033;-66
2023/11/08 09:12:09;;;;;;;5.47;3.97;;;;;;;8.05;100.00;100320.66;5034172;28;20069;-67
2023/11/08 09:14:34;;;;;;;5.80;4.20;;;;;;;8.11;100.00;100319.22;5034327;28;20430;-68
2023/11/08 09:17:01;;;;;;;5.60;4.40;;;;;;;8.07;100.00;100317.84;5034408;28;20037;-68
2023/11/08 09:19:27;;;;;;;5.77;4.50;;;;;;;8.01;100.00;100318.50;5033825;28;20040;-68
2023/11/08 09:21:53;;;;;;;5.90;4.40;;;;;;;8.05;100.00;100330.44;5032105;28;20037;-67
2023/11/08 09:24:18;;;;;;;6.83;4.60;;;;;;;7.96;100.00;100311.00;5032457;28;20591;-68
2023/11/08 09:26:46;;;;;;;6.27;4.80;;;;;;;8.03;100.00;100313.84;5033323;28;20045;-66
2023/11/08 09:29:15;;;;;;;7.80;5.20;;;;;;;8.12;100.00;100328.84;5032652;28;20037;-65
2023/11/08 09:31:42;;;;;;;7.70;4.43;;;;;;;8.17;100.00;100328.38;5034073;28;20041;-67
2023/11/08 09:34:08;;;;;;;7.87;5.37;;;;;;;8.20;100.00;100334.19;5034285;28;20128;-69
2023/11/08 09:36:36;;;;;;;9.37;7.87;;;;;;;8.19;100.00;100332.53;5033783;28;20111;-69
2023/11/08 09:39:02;;;;;;;8.38;5.13;;;;;;;7.98;100.00;100302.91;5032927;28;20049;-67
2023/11/08 09:41:28;;;;;;;7.00;4.57;;;;;;;7.87;100.00;100296.06;5033301;28;20095;-65
2023/11/08 09:43:55;;;;;;;6.07;4.70;;;;;;;8.01;100.00;100315.84;5033887;28;20033;-65
2023/11/08 09:46:22;;;;;;;6.93;4.33;;;;;;;7.89;100.00;100298.53;5033774;28;20060;-65
2023/11/08 09:48:54;;;;;;;7.30;5.20;;;;;;;7.93;100.00;100310.50;5033579;28;20061;-64
2023/11/08 09:51:19;;;;;;;9.03;4.90;;;;;;;8.04;100.00;100326.13;5033353;28;20095;-64
2023/11/08 09:53:46;;;;;;;8.90;4.73;;;;;;;8.00;100.00;100322.13;5033074;28;20496;-65
2023/11/08 09:56:13;;;;;;;5.73;4.50;;;;;;;7.98;100.00;100311.69;5033292;28;20044;-64
2023/11/08 09:58:45;;;;;;;6.90;5.13;;;;;;;8.00;100.00;100322.97;5032109;28;20110;-65
2023/11/08 10:01:16;;;;;;;7.20;5.53;;;;;;;7.97;100.00;100330.41;5033089;28;20044;-66
2023/11/08 10:03:45;;;;;;;7.60;4.53;;;;;;;7.96;100.00;100328.75;5031720;28;20071;-65
2023/11/08 10:06:11;;;;;;;10.70;5.03;;;;;;;8.02;100.00;100330.75;5031499;28;20052;-66
2023/11/08 10:08:37;;;;;;;9.00;5.07;;;;;;;7.77;100.00;100290.84;5032969;28;20077;-65
2023/11/08 10:11:05;;;;;;;7.33;4.97;;;;;;;8.12;100.00;100330.69;5033032;28;20136;-67
2023/11/08 10:13:48;;;;;;;9.25;6.57;;;;;;;8.07;100.00;100324.00;5032558;28;20038;-65
2023/11/08 10:16:15;;;;;;;9.93;4.80;;;;;;;8.18;100.00;100341.47;5032767;28;20037;-65
2023/11/08 10:18:57;;;;;;;11.40;5.33;;;;;;;8.19;100.00;100337.00;5032881;28;20075;-67
2023/11/08 10:21:32;;;;;;;6.27;5.23;;;;;;;8.24;100.00;100342.66;5033890;28;20053;-68
2023/11/08 10:24:11;;;;;;;6.23;4.90;;;;;;;8.16;100.00;100324.88;5032826;28;20061;-65
2023/11/08 10:26:39;;;;;;;;;;;;;;;8.40;100.00;100350.75;5033178;28;20061;-67
2023/11/08 10:29:05;;;;;;;9.77;5.68;;;;;;;8.32;100.00;100342.69;5032775;28;19952;-65
2023/11/08 10:31:34;;;;;;;7.47;5.20;;;;;;;8.39;100.00;100354.41;5032733;28;20087;-67
2023/11/08 10:34:05;;;;;;;9.35;6.10;;;;;;;8.29;100.00;100329.75;5032278;28;20038;-68
2023/11/08 10:36:32;;;;;;;9.67;6.07;;;;;;;8.35;100.00;100348.53;5033377;28;20516;-66
2023/11/08 10:38:58;;;;;;;11.70;5.73;;;;;;;8.06;100.00;100306.41;5032511;28;20127;-67
2023/11/08 10:41:24;;;;;;;9.53;6.37;;;;;;;8.31;100.00;100347.16;5030510;28;20743;-66
2023/11/08 10:44:06;;;;;;;9.70;6.17;;;;;;;8.45;100.00;100352.94;5031755;28;20033;-65
2023/11/08 10:46:32;;;;;;;9.80;6.23;;;;;;;8.46;100.00;100349.28;5032028;28;20092;-65
2023/11/08 10:48:59;;;;;;;9.30;5.87;;;;;;;8.50;100.00;100351.44;5031115;28;20499;-66
2023/11/08 10:51:25;;;;;;;8.40;5.43;;;;;;;8.50;100.00;100350.63;5032005;28;20389;-64
2023/11/08 10:53:51;;;;;;;10.17;5.03;;;;;;;8.48;100.00;100348.13;5031974;28;20063;-66
2023/11/08 10:56:17;;;;;;;7.07;5.30;;;;;;;8.50;100.00;100361.25;5032040;28;20472;-67
2023/11/08 10:58:46;;;;;;;11.40;5.90;;;;;;;8.33;100.00;100328.44;5032426;28;20065;-68
2023/11/08 11:01:12;;;;;;;15.80;5.80;;;;;;;8.49;100.00;100359.56;5030900;28;20034;-64
2023/11/08 11:03:42;;;;;;;9.17;4.90;;;;;;;8.38;100.00;100342.97;5032003;28;20099;-65
2023/11/08 11:06:08;;;;;;;7.70;5.67;;;;;;;8.46;100.00;100349.28;5031736;28;20041;-67
2023/11/08 11:08:40;;;;;;;9.10;5.50;;;;;;;8.51;100.00;100352.28;5032034;28;20037;-66
2023/11/08 11:11:08;;;;;;;7.37;5.57;;;;;;;8.37;100.00;100325.34;5032367;28;20047;-64
2023/11/08 11:13:59;;;;;;;11.73;5.30;;;;;;;8.66;100.00;100363.94;5031955;28;20037;-69
2023/11/08 11:16:30;;;;;;;11.17;5.57;;;;;;;8.61;100.00;100352.97;5031955;28;20029;-66
2023/11/08 11:19:05;;;;;;;9.00;5.33;;;;;;;8.68;100.00;100360.16;5031660;28;20485;-68
2023/11/08 11:21:44;;;;;;;8.90;6.70;;;;;;;8.73;100.00;100357.03;5032034;28;20037;-68